Time;durP1;ratioP1;P1;durP2;ratioP2;P2;SDS_P1;SDS_P2;PMS_P1;PMS_P2;Temp;Humidity;BMP_temperature;BMP_pressure;BME280_temperature;BME280_humidity;BME280_pressure;Samples;Min_cycle;Max_cycle;Signal;HPM_P1;HPM_P2
2023/03/15 00:00:11;;;;;;;10.80;2.45;;;;;;;2.82;80.41;100801.78;4996140;28;20510;-64
2023/03/15 00:02:38;;;;;;;10.95;2.70;;;;;;;2.85;79.43;100793.31;4998418;28;20756;-64
2023/03/15 00:05:04;;;;;;;12.50;2.90;;;;;;;2.82;79.59;100795.81;4989508;28;20089;-64
2023/03/15 00:07:30;;;;;;;12.18;2.53;;;;;;;2.72;80.25;100793.91;4988834;28;20034;-65
2023/03/15 00:09:55;;;;;;;12.23;2.83;;;;;;;2.66;80.96;100798.84;4985671;28;20827;-65
2023/03/15 00:12:21;;;;;;;16.92;3.10;;;;;;;2.62;81.36;100803.00;4985798;28;20116;-64
2023/03/15 00:14:48;;;;;;;9.15;2.75;;;;;;;2.61;81.25;100811.47;4993348;28;20038;-65
2023/03/15 00:17:13;;;;;;;13.57;2.70;;;;;;;2.61;81.26;100813.16;4990545;28;20041;-65
2023/03/15 00:19:39;;;;;;;11.52;2.45;;;;;;;2.61;81.47;100814.03;4995846;28;20026;-64
2023/03/15 00:22:04;;;;;;;13.82;2.90;;;;;;;2.61;81.34;100808.94;4993481;28;20038;-64
2023/03/15 00:24:30;;;;;;;10.35;2.85;;;;;;;2.64;81.98;100813.25;4992624;28;20026;-64
2023/03/15 00:26:55;;;;;;;13.02;3.15;;;;;;;2.64;81.39;100816.66;4991738;28;20048;-64
2023/03/15 00:29:20;;;;;;;10.32;3.05;;;;;;;2.66;81.33;100814.16;4993943;28;20050;-64
2023/03/15 00:31:46;;;;;;;11.95;3.22;;;;;;;2.73;81.16;100821.13;4989359;28;20038;-64
2023/03/15 00:34:12;;;;;;;11.38;4.03;;;;;;;2.76;81.57;100821.19;4998406;28;20535;-64
2023/03/15 00:36:38;;;;;;;15.60;4.70;;;;;;;2.79;81.79;100808.50;4987133;28;20070;-64
2023/03/15 00:39:04;;;;;;;9.30;4.55;;;;;;;2.81;81.42;100819.63;4996362;28;20685;-64
2023/03/15 00:41:30;;;;;;;10.65;4.30;;;;;;;2.83;81.27;100821.38;4990107;28;20043;-64
2023/03/15 00:43:56;;;;;;;13.45;4.28;;;;;;;2.84;81.50;100819.69;4999338;28;20468;-64
2023/03/15 00:46:21;;;;;;;10.32;4.45;;;;;;;2.85;81.77;100822.28;4992146;28;20030;-64
2023/03/15 00:48:49;;;;;;;12.15;4.20;;;;;;;2.85;81.44;100811.19;4993049;28;20129;-64
2023/03/15 00:51:17;;;;;;;10.43;3.95;;;;;;;2.86;82.00;100813.81;4994072;28;20050;-64
2023/03/15 00:53:45;;;;;;;13.23;4.57;;;;;;;2.87;81.81;100818.06;4982592;28;20070;-64
2023/03/15 00:56:13;;;;;;;18.08;4.68;;;;;;;2.88;81.60;100822.34;4996545;28;20104;-64
2023/03/15 00:58:39;;;;;;;9.98;3.83;;;;;;;2.88;81.98;100818.94;4992237;28;20030;-64
2023/03/15 01:01:10;;;;;;;10.48;4.80;;;;;;;2.90;81.81;100814.75;4992268;28;20075;-64
2023/03/15 01:03:36;;;;;;;14.38;4.72;;;;;;;2.91;81.39;100813.91;4998887;28;20415;-64
2023/03/15 01:06:12;;;;;;;13.07;4.38;;;;;;;2.94;81.71;100816.53;4999175;28;20436;-64
2023/03/15 01:08:38;;;;;;;16.90;4.72;;;;;;;2.94;81.85;100827.59;4988841;28;20111;-64
2023/03/15 01:11:06;;;;;;;12.75;4.65;;;;;;;2.95;82.17;100823.34;4988565;28;20836;-64
2023/03/15 01:13:32;;;;;;;11.60;4.82;;;;;;;2.99;81.56;100820.06;4990133;28;20050;-65
2023/03/15 01:15:57;;;;;;;22.30;6.50;;;;;;;3.07;80.89;100821.09;4999605;28;20034;-64
2023/03/15 01:18:23;;;;;;;13.00;4.60;;;;;;;3.13;81.76;100823.78;4991464;28;20056;-64
2023/03/15 01:20:48;;;;;;;10.50;4.85;;;;;;;3.17;81.14;100815.34;4990870;28;20041;-64
2023/03/15 01:23:13;;;;;;;14.60;5.75;;;;;;;3.21;81.31;100832.47;4989977;28;20465;-64
2023/03/15 01:25:39;;;;;;;14.02;5.72;;;;;;;3.24;81.56;100831.66;4997048;28;20034;-64
2023/03/15 01:28:04;;;;;;;20.95;5.70;;;;;;;3.26;81.00;100822.38;4992087;28;20497;-64
2023/03/15 01:30:30;;;;;;;12.75;4.97;;;;;;;3.29;80.63;100832.66;4994495;28;20038;-64
2023/03/15 01:32:55;;;;;;;9.38;4.57;;;;;;;3.30;81.09;100827.56;4990644;28;20081;-64
2023/03/15 01:35:20;;;;;;;15.50;5.93;;;;;;;3.34;81.50;100825.94;4991355;28;20493;-64
2023/03/15 01:37:49;;;;;;;15.85;5.95;;;;;;;3.36;81.53;100835.34;4997006;28;20138;-65
2023/03/15 01:40:14;;;;;;;14.10;5.22;;;;;;;3.41;81.08;100840.53;4992659;28;20029;-64
2023/03/15 01:43:12;;;;;;;15.10;5.55;;;;;;;3.46;79.82;100849.19;4990449;28;20049;-64
2023/03/15 01:45:53;;;;;;;16.02;5.45;;;;;;;3.52;80.75;100857.00;4992873;28;20034;-64
2023/03/15 01:48:22;;;;;;;16.08;5.88;;;;;;;3.52;80.83;100857.00;4996344;28;20104;-64
2023/03/15 01:50:48;;;;;;;11.50;4.88;;;;;;;3.48;81.85;100870.53;4996741;28;20149;-64
2023/03/15 01:53:14;;;;;;;13.20;4.63;;;;;;;3.45;82.12;100866.22;4997449;28;20113;-64
2023/03/15 01:55:40;;;;;;;13.43;5.88;;;;;;;3.44;83.09;100872.13;4995693;28;20038;-64
2023/03/15 01:58:07;;;;;;;13.85;5.72;;;;;;;3.42;83.12;100886.59;4991491;28;20022;-64
2023/03/15 02:00:33;;;;;;;13.38;6.10;;;;;;;3.37;85.04;100897.53;4992404;28;20042;-63
2023/03/15 02:03:01;;;;;;;15.10;5.57;;;;;;;3.34;85.72;100889.81;4985013;28;20042;-63
2023/03/15 02:05:34;;;;;;;17.90;5.93;;;;;;;3.33;85.92;100888.06;4988932;28;20189;-64
2023/03/15 02:08:01;;;;;;;15.35;5.50;;;;;;;3.32;86.55;100894.03;4985652;28;20100;-63
2023/03/15 02:10:34;;;;;;;11.48;5.38;;;;;;;3.29;86.92;100883.75;4985051;28;20804;-63
2023/03/15 02:13:00;;;;;;;14.07;7.13;;;;;;;3.27;86.80;100890.47;4992111;28;20076;-63
2023/03/15 02:15:26;;;;;;;14.07;5.18;;;;;;;3.23;87.48;100891.25;4984961;28;20716;-63
2023/03/15 02:17:53;;;;;;;13.63;5.75;;;;;;;3.19;88.63;100886.91;4986738;28;20124;-62
2023/03/15 02:20:59;;;;;;;13.75;5.68;;;;;;;3.14;88.97;100888.50;4990266;28;20034;-62
2023/03/15 02:23:25;;;;;;;17.17;5.32;;;;;;;3.08;90.17;100890.91;4986068;28;20065;-63
2023/03/15 02:26:27;;;;;;;16.17;7.07;;;;;;;3.07;90.69;100884.06;4995745;28;20038;-63
2023/03/15 02:28:53;;;;;;;15.50;5.63;;;;;;;3.04;90.03;100884.84;4992522;28;20566;-63
2023/03/15 02:31:20;;;;;;;15.43;5.85;;;;;;;3.02;90.38;100875.44;4992925;28;20487;-63
2023/03/15 02:33:51;;;;;;;14.40;6.30;;;;;;;2.96;90.42;100878.72;4992193;28;20037;-63
2023/03/15 02:36:28;;;;;;;15.95;6.22;;;;;;;2.95;91.21;100882.06;4994746;28;20085;-63
2023/03/15 02:38:55;;;;;;;18.08;5.57;;;;;;;2.94;91.44;100880.34;4995101;28;20060;-62
2023/03/15 02:41:23;;;;;;;14.10;5.10;;;;;;;2.92;91.40;100877.75;4990947;28;20369;-62
2023/03/15 02:43:53;;;;;;;15.23;5.97;;;;;;;2.94;92.00;100880.34;4992387;28;20062;-62
2023/03/15 02:46:18;;;;;;;12.63;5.82;;;;;;;2.91;92.39;100870.94;4996035;28;20042;-63
2023/03/15 02:48:45;;;;;;;20.02;6.20;;;;;;;2.81;91.45;100875.78;4990945;28;20104;-62
2023/03/15 02:51:23;;;;;;;8.63;4.45;;;;;;;2.64;92.49;100888.09;4996939;28;20827;-62
2023/03/15 02:53:49;;;;;;;13.88;5.03;;;;;;;2.40;92.64;100897.69;4995429;28;20175;-62
2023/03/15 02:56:15;;;;;;;10.82;4.93;;;;;;;2.12;92.73;100893.53;4995989;28;20907;-61
2023/03/15 02:58:44;;;;;;;12.32;5.20;;;;;;;1.88;93.33;100895.41;4994757;28;20030;-62
2023/03/15 03:01:12;;;;;;;13.90;5.10;;;;;;;1.70;93.68;100890.66;4997026;28;20530;-59
2023/03/15 03:03:37;;;;;;;7.88;4.35;;;;;;;1.61;94.13;100907.34;4993095;28;20137;-59
2023/03/15 03:06:03;;;;;;;14.73;6.00;;;;;;;1.53;94.45;100909.66;4993783;28;20042;-58
2023/03/15 03:08:28;;;;;;;13.23;5.22;;;;;;;1.47;95.02;100917.13;5000210;28;20076;-59
2023/03/15 03:10:54;;;;;;;17.05;6.30;;;;;;;1.39;95.24;100910.91;4996577;28;20112;-59
2023/03/15 03:13:19;;;;;;;12.13;5.03;;;;;;;1.35;95.98;100911.66;4994081;28;20042;-58
2023/03/15 03:15:44;;;;;;;10.13;5.25;;;;;;;1.35;96.24;100923.53;4999587;28;20737;-59
2023/03/15 03:18:10;;;;;;;16.52;7.00;;;;;;;1.34;96.19;100919.22;5001927;28;20061;-59
2023/03/15 03:20:35;;;;;;;18.02;6.40;;;;;;;1.33;96.46;100914.97;5000709;28;20561;-60
2023/03/15 03:23:04;;;;;;;11.57;5.97;;;;;;;1.34;96.83;100925.19;5000497;28;20461;-60
2023/03/15 03:25:31;;;;;;;22.45;8.05;;;;;;;1.32;96.75;100929.38;4996679;28;20049;-59
2023/03/15 03:27:57;;;;;;;15.93;5.75;;;;;;;1.34;97.19;100931.97;4996953;28;20120;-60
2023/03/15 03:30:23;;;;;;;16.05;6.80;;;;;;;1.32;96.98;100929.38;5000247;28;20522;-60
2023/03/15 03:32:49;;;;;;;15.68;7.28;;;;;;;1.30;97.23;100926.78;4996177;28;20136;-59
2023/03/15 03:35:14;;;;;;;17.10;6.22;;;;;;;1.29;97.59;100935.25;4996610;28;20507;-60
2023/03/15 03:37:40;;;;;;;13.00;5.75;;;;;;;1.29;97.57;100939.47;4999996;28;20046;-59
2023/03/15 03:40:07;;;;;;;16.92;5.68;;;;;;;1.29;98.00;100937.81;4996184;28;20073;-59
2023/03/15 03:42:32;;;;;;;14.77;6.22;;;;;;;1.29;97.84;100931.84;4997522;28;20038;-58
2023/03/15 03:44:58;;;;;;;18.15;5.93;;;;;;;1.25;98.04;100938.50;4997782;28;20173;-58
2023/03/15 03:47:23;;;;;;;13.02;6.97;;;;;;;1.26;98.13;100940.25;4993570;28;20041;-59
2023/03/15 03:49:48;;;;;;;10.93;5.88;;;;;;;1.26;98.23;100944.47;4993854;28;20042;-59
2023/03/15 03:52:14;;;;;;;16.27;6.35;;;;;;;1.27;98.30;100947.06;4995168;28;20037;-59
2023/03/15 03:54:41;;;;;;;14.18;6.43;;;;;;;1.27;98.26;100959.78;5002120;28;20045;-59
2023/03/15 03:57:07;;;;;;;17.70;6.10;;;;;;;1.28;98.67;100958.97;5003956;28;20093;-60
2023/03/15 03:59:32;;;;;;;15.25;6.50;;;;;;;1.30;98.61;100959.03;4991965;28;20053;-58
2023/03/15 04:01:57;;;;;;;11.30;6.30;;;;;;;1.31;98.72;100953.13;4998347;28;20891;-60
2023/03/15 04:04:25;;;;;;;16.65;5.70;;;;;;;1.34;98.60;100950.66;4999438;28;20046;-60
2023/03/15 04:06:50;;;;;;;9.35;4.97;;;;;;;1.36;98.68;100953.28;4994087;28;20446;-59
2023/03/15 04:09:17;;;;;;;18.42;6.28;;;;;;;1.40;98.61;100950.84;4971127;28;20043;-59
2023/03/15 04:11:42;;;;;;;14.07;6.32;;;;;;;1.46;98.75;100945.94;4972285;28;20053;-60
2023/03/15 04:14:13;;;;;;;17.08;6.93;;;;;;;1.48;98.79;100949.41;4983375;28;20046;-59
2023/03/15 04:16:39;;;;;;;20.02;6.93;;;;;;;1.48;99.12;100956.19;4967907;28;20031;-59
2023/03/15 04:19:06;;;;;;;17.48;6.88;;;;;;;1.48;99.26;100953.66;4971723;28;20415;-59
2023/03/15 04:21:32;;;;;;;15.85;7.10;;;;;;;1.53;99.52;100957.19;4965971;28;20050;-59
2023/03/15 04:23:58;;;;;;;14.27;6.38;;;;;;;1.50;99.73;100959.66;4968487;28;20045;-59
2023/03/15 04:26:25;;;;;;;14.85;7.78;;;;;;;1.51;99.57;100961.38;4975188;28;20038;-59
2023/03/15 04:28:55;;;;;;;15.23;7.57;;;;;;;1.52;99.79;100963.09;4971482;28;20056;-59
2023/03/15 04:31:25;;;;;;;14.23;7.78;;;;;;;1.55;99.63;100968.28;4980575;28;20525;-60
2023/03/15 04:33:54;;;;;;;12.60;7.07;;;;;;;1.53;99.76;100963.16;4980710;28;20100;-59
2023/03/15 04:36:20;;;;;;;19.58;6.93;;;;;;;1.55;99.93;100956.44;4983661;28;20035;-59
2023/03/15 04:38:46;;;;;;;14.93;7.47;;;;;;;1.57;99.91;100957.31;4977904;28;20080;-59
2023/03/15 04:41:16;;;;;;;17.40;8.05;;;;;;;1.60;99.88;100959.09;4975878;28;20042;-59
2023/03/15 04:43:42;;;;;;;18.27;7.88;;;;;;;1.59;100.00;100960.81;4974784;28;20665;-59
2023/03/15 04:46:08;;;;;;;16.88;8.68;;;;;;;1.61;99.95;100965.94;4976108;28;20751;-59
2023/03/15 04:48:34;;;;;;;21.15;9.15;;;;;;;1.62;100.00;100960.91;4973539;28;20042;-59
2023/03/15 04:51:00;;;;;;;20.90;8.70;;;;;;;1.66;100.00;100964.38;4981242;28;20035;-59
2023/03/15 04:53:25;;;;;;;23.20;9.85;;;;;;;1.69;100.00;100974.66;4977124;28;20053;-58
2023/03/15 04:55:51;;;;;;;19.48;8.40;;;;;;;1.75;100.00;100978.28;4975596;28;20031;-59
2023/03/15 04:58:17;;;;;;;19.02;8.00;;;;;;;1.75;100.00;100978.28;4973865;28;20507;-60
2023/03/15 05:00:42;;;;;;;16.85;8.35;;;;;;;1.74;100.00;100986.75;4968430;28;20410;-60
2023/03/15 05:03:07;;;;;;;21.52;9.07;;;;;;;1.73;100.00;101000.31;4976750;28;20050;-58
2023/03/15 05:05:33;;;;;;;22.05;8.73;;;;;;;1.74;100.00;100999.50;4969282;28;20035;-58
2023/03/15 05:07:58;;;;;;;16.77;6.60;;;;;;;1.75;100.00;101000.34;4978538;28;20132;-58
2023/03/15 05:10:24;;;;;;;16.00;6.80;;;;;;;1.71;100.00;101004.50;5002106;28;20033;-59
2023/03/15 05:12:50;;;;;;;14.80;6.22;;;;;;;1.70;100.00;101007.84;4996992;28;20037;-59
2023/03/15 05:15:17;;;;;;;15.95;5.20;;;;;;;1.76;100.00;101005.50;4997514;28;20049;-58
2023/03/15 05:17:45;;;;;;;9.57;4.15;;;;;;;1.77;100.00;101017.44;4987376;28;20076;-58
2023/03/15 05:20:11;;;;;;;13.35;4.63;;;;;;;1.77;100.00;101012.34;4981506;28;20089;-58
2023/03/15 05:22:38;;;;;;;11.10;4.50;;;;;;;1.80;100.00;101019.19;4972171;28;20518;-58
2023/03/15 05:25:03;;;;;;;7.90;4.50;;;;;;;1.80;100.00;101014.09;4975814;28;20026;-59
2023/03/15 05:27:31;;;;;;;8.68;3.67;;;;;;;1.79;100.00;101020.88;4989769;28;20072;-58
2023/03/15 05:29:57;;;;;;;10.38;3.92;;;;;;;1.75;100.00;101021.59;4986997;28;20046;-60
2023/03/15 05:32:25;;;;;;;7.53;4.00;;;;;;;1.75;100.00;101018.16;4991694;28;20064;-59
2023/03/15 05:34:53;;;;;;;9.52;4.10;;;;;;;1.76;100.00;101023.31;4988680;28;20095;-58
2023/03/15 05:37:22;;;;;;;10.48;4.13;;;;;;;1.81;100.00;101026.00;4981154;28;20504;-58
2023/03/15 05:39:47;;;;;;;9.05;3.80;;;;;;;1.85;100.00;101031.25;4994606;28;20445;-62
2023/03/15 05:42:14;;;;;;;11.18;3.97;;;;;;;1.92;100.00;101034.00;4989440;28;20034;-59
2023/03/15 05:44:39;;;;;;;7.00;3.75;;;;;;;1.97;100.00;101037.53;4988664;28;20133;-59
2023/03/15 05:47:05;;;;;;;7.63;4.05;;;;;;;2.00;100.00;101042.72;4989554;28;20033;-59
2023/03/15 05:49:31;;;;;;;11.05;4.57;;;;;;;2.01;100.00;101040.25;4978411;28;20713;-62
2023/03/15 05:51:56;;;;;;;8.90;3.60;;;;;;;2.03;100.00;101048.78;4981349;28;20044;-61
2023/03/15 05:54:21;;;;;;;6.95;3.20;;;;;;;2.06;100.00;101055.66;4994254;28;20046;-62
2023/03/15 05:56:47;;;;;;;7.68;3.13;;;;;;;2.09;100.00;101071.06;4994387;28;20046;-62
2023/03/15 05:59:12;;;;;;;5.80;2.83;;;;;;;2.13;100.00;101078.00;4987365;28;20048;-62
2023/03/15 06:01:38;;;;;;;4.68;3.15;;;;;;;2.17;100.00;101074.69;4994727;28;20733;-61
2023/03/15 06:04:04;;;;;;;4.85;3.20;;;;;;;2.21;100.00;101081.63;4996887;28;20034;-71
2023/03/15 06:06:29;;;;;;;3.50;2.60;;;;;;;2.26;100.00;101085.16;4999914;28;20042;-72
2023/03/15 06:08:54;;;;;;;5.22;2.95;;;;;;;2.30;100.00;101082.78;4995976;28;20152;-71
2023/03/15 06:11:20;;;;;;;5.63;3.45;;;;;;;2.32;100.00;101093.88;4992925;28;20041;-72
2023/03/15 06:13:46;;;;;;;5.00;3.45;;;;;;;2.34;100.00;101092.22;4999572;28;20403;-71
2023/03/15 06:16:11;;;;;;;7.82;3.97;;;;;;;2.38;100.00;101096.59;4996091;28;20042;-69
2023/03/15 06:18:36;;;;;;;6.05;4.13;;;;;;;2.39;100.00;101095.81;4993488;28;20038;-69
2023/03/15 06:21:02;;;;;;;6.57;4.57;;;;;;;2.44;100.00;101106.13;4996924;28;20044;-69
2023/03/15 06:23:27;;;;;;;5.65;4.05;;;;;;;2.44;100.00;101108.69;4999518;28;20048;-69
2023/03/15 06:25:53;;;;;;;7.38;4.55;;;;;;;2.46;100.00;101106.19;4999690;28;20044;-69
2023/03/15 06:28:18;;;;;;;8.85;4.95;;;;;;;2.49;100.00;101113.94;5001271;28;20030;-69
2023/03/15 06:30:44;;;;;;;8.95;5.43;;;;;;;2.53;100.00;101113.19;4993082;28;20130;-70
2023/03/15 06:33:09;;;;;;;10.77;7.03;;;;;;;2.55;99.73;101114.09;4991378;28;20033;-69
2023/03/15 06:35:35;;;;;;;9.82;7.10;;;;;;;2.57;99.34;101115.88;4998413;28;20076;-61
2023/03/15 06:38:00;;;;;;;9.60;6.47;;;;;;;2.62;99.44;101126.22;4989417;28;20504;-60
2023/03/15 06:40:26;;;;;;;11.68;7.28;;;;;;;2.64;99.66;101135.63;4992845;28;20085;-62
2023/03/15 06:42:51;;;;;;;11.88;7.10;;;;;;;2.64;99.51;101140.75;4986907;28;20034;-62
2023/03/15 06:45:17;;;;;;;13.50;7.15;;;;;;;2.67;99.08;101142.50;4997306;28;20034;-62
2023/03/15 06:47:42;;;;;;;10.48;6.95;;;;;;;2.72;99.37;101143.53;4996858;28;20044;-62
2023/03/15 06:50:08;;;;;;;12.77;8.27;;;;;;;2.73;99.21;101153.78;4991404;28;20044;-63
2023/03/15 06:52:34;;;;;;;12.57;8.00;;;;;;;2.74;99.43;101152.09;4989662;28;20053;-62
2023/03/15 06:54:59;;;;;;;12.38;8.45;;;;;;;2.77;99.25;101152.19;4997535;28;20038;-62
2023/03/15 06:57:24;;;;;;;16.15;8.85;;;;;;;2.82;99.30;101163.38;4995983;28;20042;-63
2023/03/15 06:59:50;;;;;;;14.07;8.93;;;;;;;2.83;98.92;101162.56;4993053;28;20049;-62
2023/03/15 07:02:17;;;;;;;14.82;9.32;;;;;;;2.82;98.61;101171.03;4991769;28;20809;-61
2023/03/15 07:04:44;;;;;;;17.10;10.23;;;;;;;2.83;98.76;101176.19;5001114;28;20025;-61
2023/03/15 07:07:12;;;;;;;15.88;9.80;;;;;;;2.89;98.41;101178.06;4993590;28;20058;-61
2023/03/15 07:09:38;;;;;;;17.88;10.13;;;;;;;2.88;98.02;101179.75;4993874;28;20077;-61
2023/03/15 07:12:04;;;;;;;13.63;9.65;;;;;;;2.88;98.16;101182.28;4992916;28;20066;-61
2023/03/15 07:14:29;;;;;;;15.13;9.75;;;;;;;2.92;97.67;101185.81;4989940;28;20045;-61
2023/03/15 07:16:55;;;;;;;20.98;10.43;;;;;;;2.93;97.09;101190.09;4990200;28;20045;-61
2023/03/15 07:19:21;;;;;;;16.90;9.82;;;;;;;2.93;96.95;101195.22;4993847;28;20026;-62
2023/03/15 07:21:46;;;;;;;18.55;10.68;;;;;;;2.98;96.81;101196.19;4987483;28;20655;-62
2023/03/15 07:24:12;;;;;;;19.10;11.07;;;;;;;3.01;96.61;101198.84;4997597;28;20083;-62
2023/03/15 07:26:37;;;;;;;17.73;11.45;;;;;;;3.06;97.35;101204.06;4993265;28;20045;-62
2023/03/15 07:29:03;;;;;;;18.02;11.18;;;;;;;3.07;96.50;101210.91;5000082;28;20037;-62
2023/03/15 07:31:28;;;;;;;17.13;11.60;;;;;;;3.09;96.61;101217.78;4998450;28;20042;-62
2023/03/15 07:33:53;;;;;;;19.83;13.63;;;;;;;3.11;96.87;101221.25;4997015;28;20042;-62
2023/03/15 07:36:21;;;;;;;19.40;13.43;;;;;;;3.13;96.14;101228.97;4991989;28;20657;-62
2023/03/15 07:38:46;;;;;;;22.85;13.88;;;;;;;3.14;96.01;101230.72;4992052;28;20129;-62
2023/03/15 07:41:11;;;;;;;20.83;13.40;;;;;;;3.15;96.26;101234.97;4996337;28;20038;-62
2023/03/15 07:43:37;;;;;;;22.80;14.48;;;;;;;3.20;96.76;101241.09;5000130;28;20038;-62
2023/03/15 07:46:02;;;;;;;21.40;13.32;;;;;;;3.19;96.53;101245.34;4995134;28;20844;-62
2023/03/15 07:48:28;;;;;;;22.05;14.02;;;;;;;3.21;95.95;101245.38;4993688;28;20066;-62
2023/03/15 07:50:55;;;;;;;19.05;12.73;;;;;;;3.22;95.40;101247.13;4999342;28;20042;-63
2023/03/15 07:53:20;;;;;;;23.95;13.07;;;;;;;3.23;95.52;101252.25;4993271;28;20042;-63
2023/03/15 07:55:47;;;;;;;25.42;13.63;;;;;;;3.23;94.76;101257.38;4996739;28;20029;-61
2023/03/15 07:58:12;;;;;;;23.33;13.93;;;;;;;3.31;95.31;101266.13;4994401;28;20669;-62
2023/03/15 08:00:37;;;;;;;23.63;14.32;;;;;;;3.37;95.86;101258.66;4992284;28;20034;-61
2023/03/15 08:03:04;;;;;;;19.83;12.45;;;;;;;3.43;95.43;101265.63;4999243;28;20127;-62
2023/03/15 08:05:30;;;;;;;22.52;14.00;;;;;;;3.43;94.76;101263.94;4998521;28;20768;-61
2023/03/15 08:07:55;;;;;;;23.77;14.57;;;;;;;3.54;94.59;101267.63;4991379;28;20050;-64
2023/03/15 08:10:21;;;;;;;23.60;14.48;;;;;;;3.67;95.15;101267.97;4996099;28;20057;-68
2023/03/15 08:12:46;;;;;;;24.50;13.38;;;;;;;3.77;94.83;101268.25;4991136;28;20084;-69
2023/03/15 08:15:13;;;;;;;23.13;14.63;;;;;;;3.80;93.89;101275.13;4991083;28;20049;-68
2023/03/15 08:17:39;;;;;;;22.23;13.80;;;;;;;3.85;92.63;101277.03;4998857;28;20281;-68
2023/03/15 08:20:08;;;;;;;24.60;14.40;;;;;;;3.99;93.12;101274.81;4991084;28;20045;-69
2023/03/15 08:22:33;;;;;;;23.23;14.05;;;;;;;4.14;92.78;101284.56;4992624;28;20077;-68
2023/03/15 08:24:59;;;;;;;21.75;13.02;;;;;;;4.22;92.33;101286.50;4997078;28;20253;-69
2023/03/15 08:27:25;;;;;;;23.10;13.77;;;;;;;4.22;91.23;101294.19;4997087;28;20060;-69
2023/03/15 08:29:50;;;;;;;22.77;13.55;;;;;;;4.23;91.46;101293.34;4997241;28;20100;-70
2023/03/15 08:32:17;;;;;;;22.15;13.00;;;;;;;4.18;91.05;101297.47;4996367;28;20128;-71
2023/03/15 08:34:43;;;;;;;23.33;14.73;;;;;;;4.19;92.01;101309.44;4994489;28;20034;-71
2023/03/15 08:37:10;;;;;;;27.33;14.43;;;;;;;4.11;92.56;101310.94;4989907;28;20030;-71
2023/03/15 08:39:38;;;;;;;21.30;13.10;;;;;;;3.98;91.90;101314.00;4995274;28;20042;-72
2023/03/15 08:42:05;;;;;;;21.55;14.38;;;;;;;3.92;91.05;101316.38;4990410;28;20136;-72
2023/03/15 08:44:31;;;;;;;22.13;13.50;;;;;;;3.86;91.26;101313.66;4988236;28;20042;-63
2023/03/15 08:46:56;;;;;;;23.65;13.88;;;;;;;3.86;91.21;101322.19;4987603;28;20073;-63
2023/03/15 08:49:22;;;;;;;24.88;14.65;;;;;;;3.90;90.75;101330.84;4990531;28;20030;-63
2023/03/15 08:51:47;;;;;;;25.88;14.00;;;;;;;4.07;91.16;101337.25;4991991;28;20041;-63
2023/03/15 08:54:13;;;;;;;21.42;12.65;;;;;;;4.07;90.81;101339.81;4987584;28;20100;-64
2023/03/15 08:56:40;;;;;;;24.83;15.82;;;;;;;4.12;91.12;101339.97;4992078;28;20045;-64
2023/03/15 08:59:05;;;;;;;21.27;12.68;;;;;;;4.07;89.73;101345.81;4989253;28;20038;-64
2023/03/15 09:01:31;;;;;;;23.85;13.10;;;;;;;4.07;88.62;101353.47;4987699;28;20092;-64
2023/03/15 09:03:56;;;;;;;20.73;12.30;;;;;;;4.10;88.60;101353.56;4989583;28;20030;-64
2023/03/15 09:06:22;;;;;;;23.90;14.38;;;;;;;4.09;89.60;101364.59;4995068;28;20034;-64
2023/03/15 09:08:47;;;;;;;24.08;14.73;;;;;;;4.15;89.46;101371.56;5004143;28;20148;-64
2023/03/15 09:11:13;;;;;;;26.48;14.98;;;;;;;4.21;88.97;101369.19;4987625;28;20622;-64
2023/03/15 09:13:38;;;;;;;21.38;13.02;;;;;;;4.17;88.48;101369.94;4987437;28;20126;-64
2023/03/15 09:16:04;;;;;;;24.52;14.68;;;;;;;4.18;88.76;101375.94;4991283;28;20057;-64
2023/03/15 09:18:30;;;;;;;22.30;13.77;;;;;;;4.20;88.98;101366.59;4990964;28;20030;-64
2023/03/15 09:20:55;;;;;;;21.00;12.88;;;;;;;4.21;87.77;101371.75;4984620;28;20121;-64
2023/03/15 09:23:21;;;;;;;20.83;12.98;;;;;;;4.25;86.55;101373.56;4993498;28;20787;-64
2023/03/15 09:25:47;;;;;;;19.48;12.02;;;;;;;4.20;87.34;101381.97;4995762;28;20041;-64
2023/03/15 09:28:13;;;;;;;16.73;11.43;;;;;;;4.15;86.59;101376.69;4987759;28;20088;-64
2023/03/15 09:30:40;;;;;;;17.83;12.50;;;;;;;4.20;87.15;101382.81;4992578;28;20033;-65
2023/03/15 09:33:06;;;;;;;19.88;12.43;;;;;;;4.29;86.97;101395.00;4989334;28;20422;-64
2023/03/15 09:35:32;;;;;;;19.00;11.77;;;;;;;4.32;86.55;101387.41;4985937;28;20065;-64
2023/03/15 09:37:57;;;;;;;22.23;11.60;;;;;;;4.42;86.18;101397.03;4993569;28;20590;-64
2023/03/15 09:40:29;;;;;;;17.63;11.48;;;;;;;4.37;84.92;101396.06;4996919;28;20058;-64
2023/03/15 09:43:07;;;;;;;17.70;11.68;;;;;;;4.42;86.18;101400.47;4968831;28;20144;-65
2023/03/15 09:45:54;;;;;;;18.98;11.52;;;;;;;4.57;86.64;101398.31;4993806;28;20148;-64
2023/03/15 09:48:31;;;;;;;15.20;9.40;;;;;;;4.65;85.20;101401.09;4974501;28;20121;-65
2023/03/15 09:51:05;;;;;;;13.63;8.93;;;;;;;4.67;84.17;101401.97;4968851;28;20042;-64
2023/03/15 09:53:57;;;;;;;15.40;9.90;;;;;;;4.76;82.95;101397.09;4973331;28;20062;-64
2023/03/15 09:56:44;;;;;;;14.02;9.82;;;;;;;4.80;82.07;101398.03;4971743;28;20042;-64
2023/03/15 09:59:10;;;;;;;14.52;9.57;;;;;;;4.75;81.22;101397.03;4974586;28;20038;-64
2023/03/15 10:01:41;;;;;;;19.52;10.48;;;;;;;4.95;81.97;101399.25;4970107;28;20038;-64
2023/03/15 10:04:40;;;;;;;14.23;8.88;;;;;;;5.16;80.77;101384.41;4971044;28;20133;-64
2023/03/15 10:07:12;;;;;;;16.38;9.52;;;;;;;5.33;80.70;101378.81;4972125;28;20808;-64
2023/03/15 10:09:38;;;;;;;17.23;8.63;;;;;;;5.38;77.30;101359.25;4972862;28;20054;-63
2023/03/15 10:12:15;;;;;;;16.38;9.93;;;;;;;5.60;77.52;101366.59;4969895;28;20100;-64
2023/03/15 10:14:59;;;;;;;16.88;10.13;;;;;;;5.61;75.71;101348.66;4973315;28;20042;-64
2023/03/15 10:17:49;;;;;;;18.95;10.57;;;;;;;5.64;77.79;101384.63;4975974;28;20049;-64
2023/03/15 10:20:20;;;;;;;15.68;9.38;;;;;;;5.77;78.50;101380.63;4969565;28;20597;-63
2023/03/15 10:23:02;;;;;;;14.23;8.35;;;;;;;5.84;77.43;101367.13;4971437;28;20054;-64
2023/03/15 10:25:29;;;;;;;13.38;8.32;;;;;;;5.79;76.55;101367.00;4982847;28;20507;-63
2023/03/15 10:28:03;;;;;;;16.35;7.47;;;;;;;5.64;75.76;101353.84;4964925;28;20034;-65
2023/03/15 10:30:32;;;;;;;13.50;7.87;;;;;;;5.47;75.95;101365.47;4970128;28;20038;-65
2023/03/15 10:32:59;;;;;;;13.43;7.50;;;;;;;5.36;77.90;101390.00;4979458;28;20193;-64
2023/03/15 10:35:25;;;;;;;17.02;8.40;;;;;;;5.23;78.55;101396.53;4974147;28;20046;-64
2023/03/15 10:37:50;;;;;;;13.70;7.47;;;;;;;5.21;76.14;101369.16;4978607;28;20026;-64
2023/03/15 10:40:38;;;;;;;14.57;8.65;;;;;;;5.22;76.47;101368.28;4984034;28;20730;-64
2023/03/15 10:43:17;;;;;;;18.40;9.70;;;;;;;5.45;77.23;101387.66;4966756;28;20050;-73
2023/03/15 10:45:47;;;;;;;15.48;7.97;;;;;;;5.59;76.88;101360.59;4973735;28;20547;-73
2023/03/15 10:48:12;;;;;;;17.98;7.97;;;;;;;5.67;74.87;101347.91;4988892;28;20041;-74
2023/03/15 10:50:39;;;;;;;15.20;8.18;;;;;;;5.83;77.59;101388.47;4968541;28;20038;-75
2023/03/15 10:53:10;;;;;;;16.65;8.02;;;;;;;5.76;76.91;101387.47;4983114;28;20096;-72
2023/03/15 10:55:42;;;;;;;12.35;8.30;;;;;;;5.80;77.50;101375.56;4981162;28;20117;-72
2023/03/15 10:58:29;;;;;;;14.73;8.30;;;;;;;5.76;76.64;101381.47;4975973;28;20034;-72
2023/03/15 11:01:02;;;;;;;12.65;7.90;;;;;;;6.10;77.43;101372.75;4971730;28;20046;-73
2023/03/15 11:03:30;;;;;;;15.38;8.43;;;;;;;6.46;77.26;101383.72;4977206;28;20109;-73
2023/03/15 11:05:57;;;;;;;18.73;8.55;;;;;;;6.83;75.52;101346.66;4975472;28;20639;-73
2023/03/15 11:08:36;;;;;;;15.25;7.63;;;;;;;6.82;72.56;101319.25;4968040;28;20061;-75
2023/03/15 11:11:01;;;;;;;12.02;8.13;;;;;;;6.68;73.15;101349.84;4972851;28;20053;-74
2023/03/15 11:13:39;;;;;;;19.83;8.23;;;;;;;6.61;73.38;101360.00;4973854;28;20034;-73
2023/03/15 11:16:22;;;;;;;15.10;7.82;;;;;;;6.55;74.97;101380.44;4977225;28;20440;-74
2023/03/15 11:18:56;;;;;;;13.13;8.10;;;;;;;6.51;72.40;101345.25;4970420;28;20781;-73
2023/03/15 11:21:25;;;;;;;14.75;8.00;;;;;;;6.76;70.64;101321.72;4970913;28;20074;-74
2023/03/15 11:23:52;;;;;;;15.70;6.15;;;;;;;6.90;70.53;101335.63;4972214;28;20130;-74
2023/03/15 11:26:25;;;;;;;8.40;4.90;;;;;;;6.88;65.16;101245.66;4975396;28;20093;-74